Time;durP1;ratioP1;P1;durP2;ratioP2;P2;SDS_P1;SDS_P2;PMS_P1;PMS_P2;Temp;Humidity;BMP_temperature;BMP_pressure;BME280_temperature;BME280_humidity;BME280_pressure;Samples;Min_cycle;Max_cycle;Signal;HPM_P1;HPM_P2
2022/12/17 13:06:55;;;;;;;0.10;0.10;;;1.20;88.20;;;;;;4952179;28;20059;-63
2022/12/17 13:09:37;;;;;;;0.10;0.10;;;1.20;88.20;;;;;;4954072;28;20166;-63
2022/12/17 13:12:03;;;;;;;1.27;1.20;;;1.30;88.20;;;;;;4953803;28;20079;-63
2022/12/17 13:14:30;;;;;;;2.20;2.08;;;1.30;88.20;;;;;;4935928;29;20097;-64
2022/12/17 13:17:19;;;;;;;0.20;0.20;;;1.30;88.10;;;;;;4950263;28;20058;-65
2022/12/17 13:20:07;;;;;;;0.10;0.10;;;1.30;88.00;;;;;;4952652;29;20078;-64
2022/12/17 13:22:33;;;;;;;0.10;0.10;;;1.30;88.00;;;;;;4948326;29;20415;-64
2022/12/17 13:25:15;;;;;;;1.00;1.00;;;1.40;88.20;;;;;;4953906;29;20039;-64
2022/12/17 13:27:42;;;;;;;1.33;1.27;;;1.40;88.00;;;;;;4953419;28;20043;-64
2022/12/17 13:30:16;;;;;;;0.10;0.10;;;1.30;88.10;;;;;;4935557;29;20051;-64
2022/12/17 13:32:54;;;;;;;8.15;5.00;;;1.40;88.00;;;;;;4953805;28;20059;-64
2022/12/17 13:35:35;;;;;;;0.10;0.10;;;1.40;87.90;;;;;;4952785;28;20039;-64
2022/12/17 13:38:25;;;;;;;0.08;0.08;;;1.40;88.00;;;;;;4946208;29;20078;-64
2022/12/17 13:41:05;;;;;;;0.10;0.10;;;1.30;88.00;;;;;;4952174;29;20396;-64
2022/12/17 13:43:33;;;;;;;0.20;0.20;;;1.30;87.90;;;;;;4951438;28;20054;-64
2022/12/17 13:45:59;;;;;;;1.45;1.35;;;1.30;88.00;;;;;;4955165;28;20039;-64
2022/12/17 13:48:27;;;;;;;4.72;4.28;;;1.40;88.00;;;;;;4934997;29;20122;-64
2022/12/17 13:50:54;;;;;;;0.50;0.50;;;1.30;88.00;;;;;;4936543;29;20078;-64
2022/12/17 13:53:20;;;;;;;0.00;0.00;;;1.30;88.00;;;;;;4953069;28;20491;-64
2022/12/17 13:55:51;;;;;;;2.47;2.28;;;1.30;87.90;;;;;;4951776;29;20094;-64
2022/12/17 13:58:26;;;;;;;0.00;0.00;;;1.30;88.00;;;;;;4952901;29;20106;-64
2022/12/17 14:01:13;;;;;;;0.57;0.57;;;1.40;88.00;;;;;;4951835;29;20310;-65
2022/12/17 14:03:47;;;;;;;1.33;1.23;;;1.40;87.90;;;;;;4952679;29;20047;-65
2022/12/17 14:06:14;;;;;;;1.60;1.50;;;1.40;87.80;;;;;;4952236;28;20045;-65
2022/12/17 14:08:40;;;;;;;0.13;0.13;;;1.30;87.70;;;;;;4952873;28;20411;-64
2022/12/17 14:13:50;;;;;;;0.10;0.10;;;1.20;87.90;;;;;;4952323;28;20389;-64
2022/12/17 14:16:17;;;;;;;3.22;2.42;;;1.20;87.80;;;;;;4952310;28;20042;-64
2022/12/17 14:18:48;;;;;;;0.10;0.10;;;1.20;87.80;;;;;;4953095;29;20376;-64
2022/12/17 14:21:14;;;;;;;1.20;1.10;;;1.20;87.80;;;;;;4953048;29;20504;-64
2022/12/17 14:23:40;;;;;;;2.30;0.98;;;1.10;87.90;;;;;;4952352;28;20054;-64
2022/12/17 14:26:09;;;;;;;0.20;0.20;;;1.20;88.00;;;;;;4952868;28;20101;-64
2022/12/17 14:28:45;;;;;;;0.75;0.20;;;1.20;88.00;;;;;;4951286;29;20047;-64
2022/12/17 14:31:13;;;;;;;0.10;0.10;;;1.20;87.90;;;;;;4952305;29;20722;-67
2022/12/17 14:33:40;;;;;;;0.50;0.50;;;1.20;87.90;;;;;;4951148;29;20051;-64
2022/12/17 14:36:15;;;;;;;3.30;3.03;;;1.30;88.20;;;;;;4951533;28;20051;-65
2022/12/17 14:38:50;;;;;;;2.42;2.22;;;1.30;88.20;;;;;;4951464;28;20467;-66
2022/12/17 14:44:02;;;;;;;1.10;1.10;;;1.20;87.80;;;;;;4952104;29;20078;-65
2022/12/17 14:46:29;;;;;;;0.45;0.45;;;1.10;87.70;;;;;;4945866;29;20094;-64
2022/12/17 14:49:02;;;;;;;0.88;0.88;;;1.00;87.80;;;;;;4938142;28;20069;-65
2022/12/17 14:51:37;;;;;;;1.85;1.75;;;1.00;87.70;;;;;;4944581;29;21203;-66
2022/12/17 14:54:18;;;;;;;0.40;0.40;;;0.90;87.70;;;;;;4950133;28;20039;-66
2022/12/17 14:56:46;;;;;;;1.55;1.23;;;0.90;87.80;;;;;;4949356;29;20210;-64
2022/12/17 14:59:37;;;;;;;0.82;0.82;;;0.80;87.80;;;;;;4949340;28;20058;-68
2022/12/17 15:02:09;;;;;;;0.40;0.40;;;0.70;87.80;;;;;;4950047;28;20054;-65
2022/12/17 15:04:38;;;;;;;0.40;0.40;;;0.70;87.80;;;;;;4948878;28;20101;-65
2022/12/17 15:07:05;;;;;;;0.28;0.28;;;0.60;87.90;;;;;;4946103;28;20530;-65
2022/12/17 15:09:37;;;;;;;0.03;0.03;;;0.60;88.00;;;;;;4948619;29;20054;-65
2022/12/17 15:12:03;;;;;;;1.13;1.13;;;0.60;88.10;;;;;;4950454;29;20058;-64
2022/12/17 15:14:28;;;;;;;0.10;0.10;;;0.60;87.80;;;;;;4950730;29;20047;-64
2022/12/17 15:16:55;;;;;;;0.10;0.10;;;0.50;88.10;;;;;;4945494;28;20090;-65
2022/12/17 15:19:21;;;;;;;0.50;0.50;;;0.50;88.00;;;;;;4949107;29;20051;-64
2022/12/17 15:21:47;;;;;;;1.92;1.45;;;0.40;87.90;;;;;;4948571;29;20051;-64
2022/12/17 15:24:18;;;;;;;0.10;0.10;;;0.40;88.10;;;;;;4947941;28;20047;-65
2022/12/17 15:26:43;;;;;;;0.10;0.10;;;0.30;88.20;;;;;;4948423;29;20055;-64
2022/12/17 15:29:09;;;;;;;4.43;3.47;;;0.30;88.20;;;;;;4946450;29;20484;-64
2022/12/17 15:31:35;;;;;;;1.13;1.05;;;0.30;88.20;;;;;;4943335;29;20043;-63
2022/12/17 15:34:01;;;;;;;0.00;0.00;;;0.30;88.30;;;;;;4949453;29;20205;-63
2022/12/17 15:36:26;;;;;;;0.10;0.10;;;0.40;89.00;;;;;;4951891;28;20035;-63
2022/12/17 15:38:52;;;;;;;0.10;0.10;;;0.40;88.70;;;;;;4947762;29;20049;-63
2022/12/17 15:44:01;;;;;;;0.00;0.00;;;0.40;88.50;;;;;;4942362;29;20086;-64
2022/12/17 15:46:28;;;;;;;1.45;1.08;;;0.30;88.30;;;;;;4948906;29;20134;-64
2022/12/17 15:48:55;;;;;;;3.08;2.67;;;0.40;88.40;;;;;;4950152;28;20173;-64
2022/12/17 15:51:22;;;;;;;40.35;2.58;;;0.30;88.40;;;;;;4949704;28;20058;-62
2022/12/17 15:53:49;;;;;;;0.00;0.00;;;0.30;88.30;;;;;;4950335;29;20122;-63
2022/12/17 15:56:22;;;;;;;2.10;0.85;;;0.30;88.30;;;;;;4950694;28;20109;-63
2022/12/17 15:58:48;;;;;;;0.10;0.10;;;0.20;88.30;;;;;;4949162;28;20027;-63
2022/12/17 16:01:13;;;;;;;0.32;0.32;;;0.20;88.30;;;;;;4948270;28;20055;-64
2022/12/17 16:03:39;;;;;;;0.30;0.30;;;0.10;88.40;;;;;;4949650;29;20039;-67
2022/12/17 16:06:05;;;;;;;0.25;0.25;;;0.10;88.40;;;;;;4949817;28;20062;-63
2022/12/17 16:08:31;;;;;;;0.00;0.00;;;0.10;88.50;;;;;;4949023;29;20046;-64
2022/12/17 16:10:56;;;;;;;7.40;2.25;;;0.30;88.90;;;;;;4949897;29;20182;-63
2022/12/17 16:13:22;;;;;;;0.10;0.10;;;0.40;88.30;;;;;;4950125;29;20046;-63
2022/12/17 16:15:57;;;;;;;2.85;2.28;;;0.30;88.30;;;;;;4948453;29;20551;-64
2022/12/17 16:18:23;;;;;;;0.10;0.10;;;0.10;88.30;;;;;;4949414;28;20047;-63
2022/12/17 16:20:49;;;;;;;1.50;1.00;;;0.10;88.20;;;;;;4948936;29;20054;-64
2022/12/17 16:23:15;;;;;;;0.52;0.45;;;0.00;88.20;;;;;;4949918;28;20047;-63
2022/12/17 16:25:41;;;;;;;0.05;0.05;;;0.00;88.20;;;;;;4949547;29;20050;-65
2022/12/17 16:28:06;;;;;;;1.02;0.57;;;0.00;88.20;;;;;;4948824;29;20047;-64
2022/12/17 16:30:32;;;;;;;0.63;0.60;;;0.00;87.90;;;;;;4947735;28;21241;-63
2022/12/17 16:32:58;;;;;;;0.57;0.57;;;0.00;88.20;;;;;;4950178;28;20055;-64
2022/12/17 16:35:27;;;;;;;7.38;2.75;;;0.00;88.20;;;;;;4949496;29;20050;-63
2022/12/17 16:37:53;;;;;;;1.95;1.55;;;0.00;88.20;;;;;;4950516;28;20186;-64
2022/12/17 16:40:18;;;;;;;0.00;0.00;;;-3276.70;88.30;;;;;;4950950;28;20125;-65
2022/12/17 16:42:44;;;;;;;0.17;0.17;;;-3276.70;88.30;;;;;;4949643;28;20065;-64
2022/12/17 16:45:10;;;;;;;2.55;1.75;;;-3276.60;88.20;;;;;;4949634;28;20044;-64
2022/12/17 16:47:35;;;;;;;0.10;0.10;;;-3276.60;88.30;;;;;;4949481;28;20106;-64
2022/12/17 16:50:01;;;;;;;0.32;0.32;;;-3276.60;88.30;;;;;;4949847;29;20396;-64
2022/12/17 16:52:27;;;;;;;0.10;0.10;;;-3276.60;88.40;;;;;;4948940;28;20165;-64
2022/12/17 16:54:52;;;;;;;0.10;0.10;;;-3276.60;88.40;;;;;;4949872;28;20046;-64
2022/12/17 16:57:18;;;;;;;0.10;0.10;;;-3276.60;88.50;;;;;;4951003;28;20039;-64
2022/12/17 16:59:43;;;;;;;0.47;0.47;;;-3276.50;88.50;;;;;;4945617;28;20127;-64
2022/12/17 17:02:14;;;;;;;0.10;0.10;;;-3276.50;88.60;;;;;;4942730;29;20399;-64
2022/12/17 17:04:40;;;;;;;0.30;0.30;;;-3276.40;88.60;;;;;;4949795;28;20055;-64
2022/12/17 17:07:05;;;;;;;0.10;0.10;;;-3276.50;88.60;;;;;;4949685;29;20039;-64
2022/12/17 17:09:31;;;;;;;0.13;0.13;;;-3276.40;88.60;;;;;;4949116;28;20048;-64
2022/12/17 17:11:57;;;;;;;0.47;0.47;;;-3276.40;88.60;;;;;;4949807;28;20039;-64
2022/12/17 17:14:26;;;;;;;0.10;0.10;;;-3276.40;88.50;;;;;;4949412;28;20103;-65
2022/12/17 17:16:51;;;;;;;2.45;1.17;;;-3276.40;88.60;;;;;;4948656;28;20039;-64
2022/12/17 17:19:17;;;;;;;1.23;1.20;;;-3276.40;88.50;;;;;;4951958;28;20687;-65
2022/12/17 17:21:51;;;;;;;0.20;0.20;;;-3276.40;88.50;;;;;;4952608;29;20150;-65
2022/12/17 17:24:23;;;;;;;0.10;0.10;;;-3276.40;88.60;;;;;;4956222;28;20055;-64
2022/12/17 17:26:50;;;;;;;0.47;0.47;;;-3276.30;88.60;;;;;;4948554;28;20377;-64
2022/12/17 17:29:16;;;;;;;1.33;1.23;;;-3276.30;88.60;;;;;;4950238;28;20058;-64
2022/12/17 17:31:42;;;;;;;0.10;0.10;;;-3276.30;88.70;;;;;;4953404;28;20689;-65
2022/12/17 17:34:12;;;;;;;0.10;0.10;;;-3276.30;88.70;;;;;;4951892;29;20063;-65
2022/12/17 17:36:39;;;;;;;0.10;0.10;;;-3276.30;88.70;;;;;;4953187;28;20050;-65
2022/12/17 17:39:05;;;;;;;1.25;1.15;;;-3276.20;88.60;;;;;;4953191;28;20160;-66
2022/12/17 17:41:31;;;;;;;0.10;0.10;;;-3276.20;88.70;;;;;;4953168;29;20467;-66
2022/12/17 17:44:06;;;;;;;0.00;0.00;;;-3276.20;88.70;;;;;;4953201;28;20393;-68
2022/12/17 17:46:32;;;;;;;0.50;0.50;;;0.10;91.50;;;;;;4953167;28;20048;-66
2022/12/17 17:48:59;;;;;;;0.10;0.10;;;0.00;90.70;;;;;;4951993;28;20053;-66
2022/12/17 17:51:34;;;;;;;0.20;0.20;;;-3276.70;90.30;;;;;;4951923;29;20043;-66
2022/12/17 17:54:01;;;;;;;0.70;0.70;;;-3276.60;90.10;;;;;;4950928;29;20066;-65
2022/12/17 17:56:32;;;;;;;0.10;0.10;;;-3276.50;90.00;;;;;;4951894;29;20051;-66
2022/12/17 17:59:01;;;;;;;0.10;0.10;;;-3276.40;89.80;;;;;;4952762;28;20508;-66
2022/12/17 18:01:35;;;;;;;0.30;0.30;;;-3276.30;89.70;;;;;;4952621;28;20090;-70
2022/12/17 18:04:01;;;;;;;0.20;0.20;;;-3276.30;89.60;;;;;;4953005;28;20421;-66
2022/12/17 18:06:28;;;;;;;0.38;0.38;;;-3276.30;89.60;;;;;;4952494;28;20104;-66
2022/12/17 18:08:58;;;;;;;0.10;0.10;;;-3276.30;89.60;;;;;;4952698;28;20420;-66
2022/12/17 18:11:26;;;;;;;7.47;0.75;;;-3276.30;89.20;;;;;;4953196;28;20381;-66
2022/12/17 18:13:54;;;;;;;0.10;0.10;;;-3276.20;89.30;;;;;;4952985;28;20043;-67
2022/12/17 18:16:31;;;;;;;0.00;0.00;;;-3276.20;89.10;;;;;;4953104;28;20432;-66
2022/12/17 18:19:06;;;;;;;1.42;1.33;;;-3276.20;89.20;;;;;;4953288;29;20481;-66
2022/12/17 18:21:33;;;;;;;0.13;0.13;;;-3276.10;89.10;;;;;;4951930;29;20073;-67
2022/12/17 18:24:24;;;;;;;20.27;1.95;;;-3276.10;89.10;;;;;;4953074;28;20525;-66
2022/12/17 18:26:51;;;;;;;0.10;0.10;;;-3276.10;89.00;;;;;;4934729;29;20069;-66
2022/12/17 18:29:20;;;;;;;0.40;0.40;;;-3276.10;89.00;;;;;;4939301;29;20081;-66
2022/12/17 18:31:45;;;;;;;0.15;0.15;;;-3276.00;89.00;;;;;;4952920;29;20057;-66
2022/12/17 18:34:16;;;;;;;0.10;0.10;;;-3276.00;89.00;;;;;;4952563;28;20051;-66
2022/12/17 18:36:44;;;;;;;0.85;0.73;;;-3276.00;89.00;;;;;;4951323;29;20499;-66
2022/12/17 18:39:23;;;;;;;0.10;0.10;;;-3276.00;88.80;;;;;;4952097;29;20528;-65
2022/12/17 18:44:40;;;;;;;0.38;0.38;;;-3275.90;88.90;;;;;;4950672;29;20055;-66
2022/12/17 18:47:06;;;;;;;0.25;0.25;;;-3275.80;88.90;;;;;;4951020;28;20496;-65
2022/12/17 18:49:32;;;;;;;0.30;0.30;;;-3275.90;89.00;;;;;;4934292;29;20089;-64
2022/12/17 18:51:58;;;;;;;0.30;0.30;;;-3275.90;89.00;;;;;;4945634;28;20697;-64
2022/12/17 18:54:26;;;;;;;0.10;0.10;;;-3275.90;89.00;;;;;;4950773;28;20055;-65
2022/12/17 18:56:53;;;;;;;0.00;0.00;;;-3275.90;89.10;;;;;;4950990;28;20126;-65
2022/12/17 18:59:21;;;;;;;0.30;0.30;;;-3275.90;89.00;;;;;;4949803;28;20429;-65
2022/12/17 19:01:47;;;;;;;0.65;0.65;;;-3275.90;89.00;;;;;;4951531;28;20466;-65
2022/12/17 19:04:15;;;;;;;1.00;0.90;;;-3275.90;89.00;;;;;;4950517;28;20047;-65
2022/12/17 19:06:42;;;;;;;0.10;0.10;;;-3275.90;88.90;;;;;;4949938;28;20500;-66
2022/12/17 19:09:15;;;;;;;0.10;0.10;;;-3275.80;88.90;;;;;;4950737;28;20083;-65
2022/12/17 19:11:40;;;;;;;0.57;0.57;;;-3275.90;88.90;;;;;;4950331;28;20047;-66
2022/12/17 19:14:06;;;;;;;0.10;0.10;;;-3275.80;88.80;;;;;;4949497;28;20385;-66
2022/12/17 19:16:31;;;;;;;1.15;1.15;;;-3275.80;88.80;;;;;;4950363;29;20073;-65
2022/12/17 19:19:01;;;;;;;0.00;0.00;;;-3275.80;88.90;;;;;;4949515;28;20046;-65
2022/12/17 19:21:32;;;;;;;0.10;0.10;;;-3275.80;88.90;;;;;;4949437;29;20058;-65
2022/12/17 19:24:01;;;;;;;0.38;0.38;;;-3275.80;88.80;;;;;;4950867;28;20044;-65
2022/12/17 19:26:27;;;;;;;1.67;1.58;;;-3275.70;88.70;;;;;;4948792;28;20135;-64
2022/12/17 19:28:54;;;;;;;0.10;0.10;;;-3275.70;88.90;;;;;;4949555;28;20051;-65
2022/12/17 19:31:21;;;;;;;2.42;0.65;;;-3275.70;88.80;;;;;;4949674;28;20122;-65
2022/12/17 19:33:48;;;;;;;0.20;0.20;;;-3275.60;88.90;;;;;;4949678;28;20098;-65
2022/12/17 19:36:19;;;;;;;0.10;0.10;;;-3275.70;88.90;;;;;;4949408;29;20047;-65
2022/12/17 19:38:45;;;;;;;0.80;0.80;;;-3275.60;88.80;;;;;;4950283;28;20046;-65
2022/12/17 19:41:13;;;;;;;0.28;0.28;;;-3275.60;88.70;;;;;;4949719;28;20055;-66
2022/12/17 19:43:40;;;;;;;0.13;0.13;;;-3275.50;88.70;;;;;;4950309;28;20051;-65
2022/12/17 19:46:09;;;;;;;0.10;0.10;;;-3275.50;88.90;;;;;;4950100;28;20066;-65
2022/12/17 19:48:36;;;;;;;0.05;0.05;;;-3275.60;88.80;;;;;;4946862;29;20039;-65
2022/12/17 19:51:04;;;;;;;1.33;1.23;;;-3275.50;88.80;;;;;;4950430;28;20408;-66
2022/12/17 19:53:31;;;;;;;0.10;0.10;;;-3275.50;88.80;;;;;;4950859;29;20227;-66
2022/12/17 19:56:11;;;;;;;0.00;0.00;;;-3275.50;88.90;;;;;;4950327;28;20942;-65
2022/12/17 19:58:40;;;;;;;0.57;0.57;;;-3275.40;89.00;;;;;;4949914;28;20043;-65
2022/12/17 20:01:18;;;;;;;0.10;0.10;;;-3275.40;89.00;;;;;;4950012;28;20059;-65
2022/12/17 20:03:44;;;;;;;0.10;0.10;;;-3275.50;89.10;;;;;;4948614;28;20048;-66
2022/12/17 20:06:13;;;;;;;0.10;0.10;;;-3275.40;88.90;;;;;;4949094;29;20057;-65
2022/12/17 20:08:39;;;;;;;0.35;0.35;;;-3275.40;89.00;;;;;;4948674;28;20130;-65
2022/12/17 20:14:01;;;;;;;0.17;0.17;;;-3275.50;89.00;;;;;;4948497;28;20492;-66
2022/12/17 20:16:29;;;;;;;16.30;4.68;;;-3275.50;89.00;;;;;;4949185;28;20059;-65
2022/12/17 20:18:56;;;;;;;0.38;0.38;;;-3275.50;88.80;;;;;;4948494;28;20098;-65
2022/12/17 20:21:22;;;;;;;1.33;1.23;;;-3275.50;88.90;;;;;;4949289;28;20492;-66
2022/12/17 20:23:48;;;;;;;0.90;0.90;;;-3275.40;88.80;;;;;;4949329;28;20054;-65
2022/12/17 20:26:15;;;;;;;0.10;0.10;;;-3275.40;88.80;;;;;;4952957;28;20478;-66
2022/12/17 20:28:41;;;;;;;0.10;0.10;;;-3275.40;89.00;;;;;;4948985;28;20043;-65
2022/12/17 20:31:07;;;;;;;3.83;1.08;;;-3275.40;89.00;;;;;;4943935;29;20508;-66
2022/12/17 20:33:32;;;;;;;0.10;0.10;;;-3275.40;89.00;;;;;;4947056;29;20040;-66
2022/12/17 20:36:06;;;;;;;0.10;0.10;;;-3275.40;89.10;;;;;;4948710;28;20059;-66
2022/12/17 20:38:32;;;;;;;0.40;0.40;;;-3275.50;89.10;;;;;;4947713;28;20055;-66
2022/12/17 20:40:58;;;;;;;3.30;1.38;;;-3275.50;89.10;;;;;;4949079;28;20055;-65
2022/12/17 20:43:24;;;;;;;0.00;0.00;;;-3275.50;89.10;;;;;;4949485;28;20488;-66
2022/12/17 20:45:53;;;;;;;0.00;0.00;;;-3275.50;89.10;;;;;;4947121;29;20047;-66
2022/12/17 20:48:20;;;;;;;1.30;1.15;;;-3275.50;89.00;;;;;;4949079;28;20059;-65
2022/12/17 20:50:47;;;;;;;0.43;0.25;;;-3275.50;89.00;;;;;;4948638;28;20200;-66
2022/12/17 20:53:12;;;;;;;0.10;0.10;;;-3275.50;89.10;;;;;;4951872;28;20043;-66
2022/12/17 20:55:38;;;;;;;0.00;0.00;;;-3275.50;89.00;;;;;;4952790;28;20162;-66
2022/12/17 20:58:04;;;;;;;0.05;0.05;;;-3275.50;88.90;;;;;;4953230;29;20047;-66
2022/12/17 21:00:29;;;;;;;0.13;0.13;;;-3275.50;88.90;;;;;;4952252;28;20087;-66
2022/12/17 21:02:55;;;;;;;0.40;0.40;;;-3275.50;88.90;;;;;;4953211;29;20043;-66
2022/12/17 21:05:21;;;;;;;0.00;0.00;;;-3275.50;88.90;;;;;;4953899;28;20055;-66
2022/12/17 21:07:48;;;;;;;0.00;0.00;;;-3275.50;89.00;;;;;;4953784;28;20134;-66
2022/12/17 21:10:14;;;;;;;0.00;0.00;;;-3275.50;89.00;;;;;;4953884;28;20520;-66
2022/12/17 21:15:24;;;;;;;0.10;0.10;;;-3275.50;89.00;;;;;;4952524;28;20039;-66
2022/12/17 21:17:49;;;;;;;0.10;0.10;;;-3275.50;89.00;;;;;;4952077;29;20050;-66
2022/12/17 21:20:15;;;;;;;0.10;0.10;;;-3275.60;89.00;;;;;;4953262;28;20094;-68
2022/12/17 21:22:41;;;;;;;0.10;0.10;;;-3275.50;88.90;;;;;;4952966;28;20524;-66
2022/12/17 21:25:07;;;;;;;0.52;0.52;;;-3275.50;88.90;;;;;;4953477;29;20531;-66
2022/12/17 21:27:33;;;;;;;0.25;0.25;;;-3275.40;88.80;;;;;;4936726;29;20050;-66
2022/12/17 21:29:59;;;;;;;0.10;0.10;;;-3275.40;89.00;;;;;;4951615;28;20126;-66
2022/12/17 21:32:25;;;;;;;0.30;0.30;;;-3275.50;88.90;;;;;;4953885;29;20468;-65
2022/12/17 21:34:50;;;;;;;0.30;0.30;;;-3275.40;88.90;;;;;;4953401;29;20043;-66
2022/12/17 21:37:16;;;;;;;1.08;0.98;;;-3275.40;88.90;;;;;;4953249;29;20086;-66
2022/12/17 21:39:42;;;;;;;3.42;2.05;;;-3275.40;89.00;;;;;;4953204;29;20515;-67
2022/12/17 21:44:51;;;;;;;0.10;0.10;;;-3275.30;89.10;;;;;;4953588;28;20047;-66
2022/12/17 21:47:17;;;;;;;0.65;0.65;;;-3275.20;89.20;;;;;;4952916;29;20086;-66
2022/12/17 21:49:42;;;;;;;0.10;0.10;;;-3275.20;89.10;;;;;;4953571;29;20146;-66
2022/12/17 21:52:08;;;;;;;0.50;0.50;;;-3275.20;89.30;;;;;;4952094;29;20051;-66
2022/12/17 21:54:33;;;;;;;0.10;0.10;;;-3275.20;89.30;;;;;;4952249;29;20075;-66
2022/12/17 21:56:59;;;;;;;0.00;0.00;;;-3275.30;89.30;;;;;;4953275;29;20058;-66
2022/12/17 21:59:25;;;;;;;0.00;0.00;;;-3275.30;89.30;;;;;;4952086;29;20075;-66
2022/12/17 22:01:52;;;;;;;2.22;0.47;;;-3275.30;89.30;;;;;;4952332;29;20054;-66
2022/12/17 22:04:18;;;;;;;0.25;0.25;;;-3275.30;89.30;;;;;;4952564;28;20051;-66
2022/12/17 22:06:43;;;;;;;0.15;0.15;;;-3275.30;89.10;;;;;;4952969;29;20057;-67
2022/12/17 22:09:09;;;;;;;0.10;0.10;;;-3275.20;89.20;;;;;;4953274;28;20043;-66
2022/12/17 22:11:35;;;;;;;5.90;1.73;;;-3275.20;89.20;;;;;;4951836;28;20045;-66
2022/12/17 22:14:01;;;;;;;0.43;0.43;;;-3275.20;89.20;;;;;;4952195;28;20116;-66
2022/12/17 22:16:33;;;;;;;0.43;0.43;;;-3275.10;89.10;;;;;;4952030;29;20043;-66
2022/12/17 22:19:00;;;;;;;0.10;0.10;;;-3275.20;89.30;;;;;;4952038;28;20047;-64
2022/12/17 22:21:26;;;;;;;1.85;1.75;;;-3275.10;89.30;;;;;;4951958;28;20051;-65
2022/12/17 22:23:52;;;;;;;0.38;0.38;;;-3275.20;89.00;;;;;;4953081;29;20035;-65
2022/12/17 22:26:19;;;;;;;0.45;0.45;;;-3275.10;89.20;;;;;;4952858;29;20050;-66
2022/12/17 22:28:48;;;;;;;0.38;0.38;;;-3275.10;89.30;;;;;;4952623;28;20043;-65
2022/12/17 22:34:04;;;;;;;0.10;0.10;;;-3275.00;89.20;;;;;;4953003;29;20048;-67
2022/12/17 22:36:32;;;;;;;0.82;0.82;;;-3275.00;89.60;;;;;;4952675;29;20043;-66
2022/12/17 22:39:02;;;;;;;1.40;1.35;;;-3275.10;89.50;;;;;;4952301;29;20042;-65
2022/12/17 22:44:13;;;;;;;0.20;0.20;;;-3275.00;89.70;;;;;;4952405;28;20055;-66
2022/12/17 22:46:39;;;;;;;0.38;0.38;;;-3275.10;89.80;;;;;;4950260;29;20045;-68
2022/12/17 22:49:04;;;;;;;0.80;0.80;;;-3275.10;89.80;;;;;;4948741;29;20140;-67
2022/12/17 22:51:30;;;;;;;0.38;0.38;;;-3275.10;89.80;;;;;;4951886;29;20050;-66
2022/12/17 22:53:58;;;;;;;0.82;0.38;;;-3275.10;89.80;;;;;;4949014;28;20067;-66
2022/12/17 22:56:24;;;;;;;0.10;0.10;;;-3275.00;89.80;;;;;;4950656;29;20086;-66
2022/12/17 22:58:49;;;;;;;0.10;0.10;;;-3275.10;89.80;;;;;;4952411;29;20046;-66
2022/12/17 23:01:15;;;;;;;4.82;2.03;;;-3275.10;89.90;;;;;;4952516;29;20040;-65
2022/12/17 23:03:41;;;;;;;0.10;0.10;;;-3275.00;90.10;;;;;;4950427;29;20051;-65
2022/12/17 23:06:09;;;;;;;0.20;0.20;;;-3275.00;90.10;;;;;;4952153;29;20067;-66
2022/12/17 23:08:35;;;;;;;0.10;0.10;;;-3275.10;90.20;;;;;;4952347;28;20057;-66
2022/12/17 23:11:08;;;;;;;0.63;0.63;;;-3275.10;90.10;;;;;;4952071;28;20079;-66
2022/12/17 23:13:34;;;;;;;0.10;0.10;;;-3275.00;90.10;;;;;;4952253;28;20520;-65
2022/12/17 23:16:00;;;;;;;1.17;1.15;;;-3275.10;90.20;;;;;;4950715;28;20039;-66
2022/12/17 23:18:26;;;;;;;0.15;0.15;;;-3275.00;90.10;;;;;;4952136;28;20409;-65
2022/12/17 23:20:51;;;;;;;0.10;0.10;;;-3275.10;90.00;;;;;;4951330;29;20188;-65
2022/12/17 23:23:17;;;;;;;0.10;0.10;;;-3275.10;89.90;;;;;;4952277;29;20102;-66
2022/12/17 23:25:42;;;;;;;0.10;0.10;;;-3275.00;89.90;;;;;;4951495;29;20047;-65
2022/12/17 23:28:08;;;;;;;0.13;0.13;;;-3275.00;89.80;;;;;;4936017;28;20126;-65
2022/12/17 23:30:36;;;;;;;0.40;0.40;;;-3275.00;89.90;;;;;;4949646;28;20055;-64
2022/12/17 23:33:01;;;;;;;0.10;0.10;;;-3275.00;89.80;;;;;;4951868;29;20496;-65
2022/12/17 23:35:27;;;;;;;0.20;0.20;;;-3275.00;89.90;;;;;;4949964;29;20047;-66
2022/12/17 23:37:53;;;;;;;0.28;0.28;;;-3275.00;89.80;;;;;;4951425;29;20073;-65
2022/12/17 23:40:20;;;;;;;0.22;0.22;;;-3275.00;90.00;;;;;;4951094;29;20050;-65
2022/12/17 23:42:45;;;;;;;0.20;0.20;;;-3275.00;89.90;;;;;;4950281;29;20058;-65
2022/12/17 23:45:11;;;;;;;0.10;0.10;;;-3275.00;90.00;;;;;;4949878;29;20035;-65
2022/12/17 23:47:38;;;;;;;2.55;2.38;;;-3275.00;89.90;;;;;;4950808;28;20055;-65
2022/12/17 23:50:05;;;;;;;0.05;0.05;;;-3274.90;90.20;;;;;;4951304;28;20062;-65
2022/12/17 23:52:30;;;;;;;0.10;0.10;;;-3274.90;90.20;;;;;;4949591;29;20755;-65
2022/12/17 23:54:56;;;;;;;0.10;0.10;;;-3274.90;90.20;;;;;;4949966;29;20055;-65
2022/12/17 23:57:22;;;;;;;0.75;0.75;;;-3274.90;90.30;;;;;;4951786;28;20043;-65
2022/12/17 23:59:47;;;;;;;0.98;0.95;;;-3274.90;90.20;;;;;;4952440;28;20130;-65
